Air Resources Laboratory banner image
Air Resources Laboratory web site National Oceanic and Atmospheric Administration (NOAA)

vt metar


K1V4 181554Z AUTO 19/17 A2985 RMK AO1 SLP098 T01940167=
KBTV 181554Z 36010KT 10SM OVC017 19/16 A2990 RMK AO2 SLP123 T01890156=
KDDH 181554Z AUTO VRB03KT 10SM FEW009 BKN035 OVC048 21/19 A2985 RMK AO2 SLP104
 T02110194=
KEFK 181555Z AUTO 34008KT 10SM OVC006 16/16 A2991 RMK AO2 T01610160=
KMPV 181551Z AUTO 32008KT 10SM OVC011 18/17 A2992 RMK AO2 SLP127 T01780172=
KMVL 181554Z AUTO 35009KT 10SM OVC015 18/16 A2990 RMK AO2 SLP123 T01780161=
KVSF 181554Z AUTO 00000KT 10SM BKN018 BKN026 OVC034 23/19 A2984 RMK AO2 SLP101
 T02280194=